CheckWX is a tool to help pilots better visualize weather data.  It is not intended as a substitute for an official pre-flight weather briefing.

16:10:16 UTC

KAFP METAR
Anson County - Jeff Cloud Field Airport
Wadesboro, North Carolina, USA
Current

15 mins ago

KAFP 221555Z AUTO 21009KT 180V240 10SM CLR 33/19 A2999 RMK AO2 T03260189
Observed
Jul-22 @ 15:55 UTC
Wind
  • 210° at 9 KTS
Visibility
10 SM
Flight Rules
VFR
Cloud Levels
  • Clear skies
Temperature
33°C / 91°F
Dewpoint
19°C / 66°F
Heat Index
34°C / 94°F
Humidity
44%
Altimeter
29.99" Hg
Pressure
1015.62 hPa
Previous

35 mins ago

KAFP 221535Z AUTO 22007KT 10SM CLR 33/20 A3000 RMK AO2 T03270199
Observed
Jul-22 @ 15:35 UTC
Wind
  • 220° at 7 KTS
Visibility
10 SM
Flight Rules
VFR
Cloud Levels
  • Clear skies
Temperature
33°C / 91°F
Dewpoint
20°C / 68°F
Heat Index
35°C / 95°F
Humidity
46%
Altimeter
30" Hg
Pressure
1015.92 hPa
Previous

55 mins ago

KAFP 221515Z AUTO 22008KT 190V250 10SM CLR 32/20 A3000 RMK AO2 T03230198
Observed
Jul-22 @ 15:15 UTC
Wind
  • 220° at 8 KTS
Visibility
10 SM
Flight Rules
VFR
Cloud Levels
  • Clear skies
Temperature
32°C / 90°F
Dewpoint
20°C / 68°F
Heat Index
34°C / 94°F
Humidity
49%
Altimeter
30" Hg
Pressure
1015.92 hPa